Time;durP1;ratioP1;P1;durP2;ratioP2;P2;SDS_P1;SDS_P2;PMS_P1;PMS_P2;Temp;Humidity;BMP_temperature;BMP_pressure;BME280_temperature;BME280_humidity;BME280_pressure;Samples;Min_cycle;Max_cycle;Signal;HPM_P1;HPM_P2
2021/10/16 00:01:39;;;;;;;6.07;1.50;;;8.00;99.90;;;;;;4911723;29;20072;-64
2021/10/16 00:04:05;;;;;;;4.38;1.48;;;7.90;99.90;;;;;;4910295;29;20049;-64
2021/10/16 00:06:31;;;;;;;5.18;1.50;;;7.90;99.90;;;;;;4911678;29;20044;-64
2021/10/16 00:08:57;;;;;;;9.13;2.15;;;7.80;99.90;;;;;;4911901;29;20068;-64
2021/10/16 00:11:22;;;;;;;5.70;1.60;;;7.80;99.90;;;;;;4912414;29;20127;-64
2021/10/16 00:13:48;;;;;;;6.45;1.70;;;7.70;99.90;;;;;;4908221;29;20056;-64
2021/10/16 00:16:14;;;;;;;5.40;1.50;;;7.70;99.90;;;;;;4913038;29;20052;-64
2021/10/16 00:18:39;;;;;;;8.13;1.90;;;7.60;99.90;;;;;;4910748;29;20052;-64
2021/10/16 00:21:06;;;;;;;5.20;1.67;;;7.60;99.90;;;;;;4910344;29;20122;-64
2021/10/16 00:23:32;;;;;;;3.17;1.48;;;7.60;99.90;;;;;;4910748;29;20100;-64
2021/10/16 00:25:58;;;;;;;4.03;1.50;;;7.40;99.90;;;;;;4912697;29;20056;-65
2021/10/16 00:28:24;;;;;;;4.15;1.50;;;7.30;99.90;;;;;;4911864;29;20049;-64
2021/10/16 00:30:50;;;;;;;4.40;1.60;;;7.40;99.90;;;;;;4910974;29;20394;-64
2021/10/16 00:33:16;;;;;;;5.05;1.70;;;7.40;99.90;;;;;;4916415;29;20087;-64
2021/10/16 00:35:42;;;;;;;3.83;1.45;;;7.30;99.90;;;;;;4908438;29;20044;-64
2021/10/16 00:38:09;;;;;;;4.70;1.80;;;7.10;99.90;;;;;;4910103;29;20099;-64
2021/10/16 00:40:34;;;;;;;4.80;1.60;;;6.90;99.90;;;;;;4911617;29;20059;-64
2021/10/16 00:43:00;;;;;;;4.88;1.58;;;6.80;99.90;;;;;;4911519;29;20049;-64
2021/10/16 00:45:26;;;;;;;5.90;2.05;;;6.70;99.90;;;;;;4920048;29;20079;-64
2021/10/16 00:47:52;;;;;;;4.90;1.75;;;6.60;99.90;;;;;;4910234;29;20509;-64
2021/10/16 00:50:21;;;;;;;4.35;1.90;;;6.50;99.90;;;;;;4911136;29;20051;-64
2021/10/16 00:52:48;;;;;;;3.60;1.70;;;6.60;99.90;;;;;;4909876;29;20067;-64
2021/10/16 00:55:16;;;;;;;6.20;2.28;;;6.60;99.90;;;;;;4911779;29;20044;-64
2021/10/16 00:57:43;;;;;;;5.75;2.30;;;6.60;99.90;;;;;;4909922;29;20052;-64
2021/10/16 01:00:10;;;;;;;6.53;2.22;;;6.70;99.90;;;;;;4911546;29;20074;-64
2021/10/16 01:02:36;;;;;;;7.70;2.78;;;6.70;99.90;;;;;;4909160;29;20044;-64
2021/10/16 01:05:04;;;;;;;6.53;2.83;;;6.70;99.90;;;;;;4910915;29;20061;-64
2021/10/16 01:07:31;;;;;;;6.47;2.00;;;6.60;99.90;;;;;;4909405;29;20060;-64
2021/10/16 01:09:56;;;;;;;9.20;2.28;;;6.60;99.90;;;;;;4910493;29;20052;-64
2021/10/16 01:12:23;;;;;;;7.78;2.40;;;6.60;99.90;;;;;;4911849;29;20052;-64
2021/10/16 01:14:57;;;;;;;9.07;2.35;;;6.60;99.90;;;;;;4891616;29;20050;-64
2021/10/16 01:17:23;;;;;;;8.45;2.67;;;6.50;99.90;;;;;;4909777;29;20091;-64
2021/10/16 01:19:55;;;;;;;13.10;3.25;;;6.50;99.90;;;;;;4910596;29;20052;-64
2021/10/16 01:22:22;;;;;;;8.95;2.65;;;6.50;99.90;;;;;;4907535;29;20041;-64
2021/10/16 01:24:49;;;;;;;9.85;3.42;;;6.50;99.90;;;;;;4910243;29;20041;-64
2021/10/16 01:27:16;;;;;;;6.93;2.17;;;6.50;99.90;;;;;;4909423;29;20044;-64
2021/10/16 01:29:42;;;;;;;7.22;2.75;;;6.40;99.90;;;;;;4925338;29;20053;-64
2021/10/16 01:32:08;;;;;;;8.02;2.15;;;6.40;99.90;;;;;;4911896;29;20040;-64
2021/10/16 01:34:34;;;;;;;10.57;3.15;;;6.40;99.90;;;;;;4893573;29;20454;-64
2021/10/16 01:37:00;;;;;;;7.55;2.17;;;6.40;99.90;;;;;;4909583;29;20052;-64
2021/10/16 01:39:26;;;;;;;7.57;2.80;;;6.30;99.90;;;;;;4908760;29;20116;-64
2021/10/16 01:41:52;;;;;;;7.55;2.40;;;6.40;99.90;;;;;;4909498;29;20060;-64
2021/10/16 01:44:18;;;;;;;7.35;2.80;;;6.30;99.90;;;;;;4910971;29;20045;-64
2021/10/16 01:46:44;;;;;;;6.80;1.95;;;6.20;99.90;;;;;;4909746;29;20084;-64
2021/10/16 01:49:15;;;;;;;7.10;2.28;;;6.10;99.90;;;;;;4910732;29;20044;-64
2021/10/16 01:51:42;;;;;;;7.25;2.53;;;6.00;99.90;;;;;;4921400;29;20056;-64
2021/10/16 01:54:08;;;;;;;6.20;2.72;;;6.00;99.90;;;;;;4930459;29;20084;-64
2021/10/16 01:56:34;;;;;;;10.05;2.85;;;6.10;99.90;;;;;;4929634;29;20048;-64
2021/10/16 01:59:14;;;;;;;6.15;2.13;;;6.00;99.90;;;;;;4929243;29;20123;-64
2021/10/16 02:01:40;;;;;;;8.77;2.72;;;6.00;99.90;;;;;;4929581;29;20055;-64
2021/10/16 02:04:06;;;;;;;6.95;2.30;;;6.00;99.90;;;;;;4913165;29;20044;-64
2021/10/16 02:06:32;;;;;;;4.90;2.53;;;6.00;99.90;;;;;;4944874;29;20052;-64
2021/10/16 02:08:57;;;;;;;7.75;2.20;;;6.10;99.90;;;;;;4928545;29;20084;-64
2021/10/16 02:11:23;;;;;;;10.95;2.53;;;6.00;99.90;;;;;;4927532;29;20048;-65
2021/10/16 02:13:48;;;;;;;8.32;2.58;;;6.00;99.90;;;;;;4929961;29;20080;-64
2021/10/16 02:16:14;;;;;;;6.07;2.55;;;5.90;99.90;;;;;;4929707;29;20087;-64
2021/10/16 02:18:40;;;;;;;12.07;2.60;;;5.90;99.90;;;;;;4929553;29;20520;-64
2021/10/16 02:21:06;;;;;;;9.23;2.97;;;5.90;99.90;;;;;;4944609;29;20060;-64
2021/10/16 02:23:31;;;;;;;5.95;2.60;;;5.90;99.90;;;;;;4929654;29;20047;-64
2021/10/16 02:25:57;;;;;;;9.88;2.92;;;6.00;99.90;;;;;;4929403;29;20056;-64
2021/10/16 02:28:23;;;;;;;10.23;3.08;;;6.00;99.90;;;;;;4912216;29;20043;-64
2021/10/16 02:30:49;;;;;;;6.65;2.80;;;6.00;99.90;;;;;;4929277;29;20063;-64
2021/10/16 02:33:14;;;;;;;10.77;3.33;;;6.00;99.90;;;;;;4916164;29;20048;-64
2021/10/16 02:35:40;;;;;;;8.48;3.00;;;6.00;99.90;;;;;;4943512;29;20048;-64
2021/10/16 02:38:07;;;;;;;9.60;3.58;;;6.00;99.90;;;;;;4928680;29;20051;-64
2021/10/16 02:40:33;;;;;;;8.93;2.80;;;6.10;99.90;;;;;;4933773;29;20128;-64
2021/10/16 02:43:00;;;;;;;6.68;3.15;;;6.20;99.90;;;;;;4928568;29;20051;-64
2021/10/16 02:45:26;;;;;;;8.32;3.10;;;6.20;99.90;;;;;;4910991;29;20050;-64
2021/10/16 02:47:52;;;;;;;8.57;4.15;;;6.20;99.90;;;;;;4943107;29;20108;-64
2021/10/16 02:50:17;;;;;;;9.30;2.75;;;6.30;99.90;;;;;;4927251;29;20044;-64
2021/10/16 02:52:43;;;;;;;11.32;3.30;;;6.30;99.90;;;;;;4928496;29;20120;-64
2021/10/16 02:55:09;;;;;;;8.45;3.20;;;6.40;99.90;;;;;;4942745;29;20060;-64
2021/10/16 02:57:34;;;;;;;9.98;4.00;;;6.50;99.90;;;;;;4943290;29;20043;-64
2021/10/16 03:00:00;;;;;;;9.40;3.70;;;6.50;99.90;;;;;;4942861;29;20052;-64
2021/10/16 03:02:26;;;;;;;7.72;3.03;;;6.60;99.90;;;;;;4943350;29;20048;-64
2021/10/16 03:04:51;;;;;;;12.30;3.55;;;6.60;99.90;;;;;;4905015;29;20454;-64
2021/10/16 03:07:17;;;;;;;11.18;3.20;;;6.70;99.90;;;;;;4940209;29;20048;-64
2021/10/16 03:09:43;;;;;;;7.20;3.25;;;6.70;99.90;;;;;;4927684;29;20051;-64
2021/10/16 03:12:09;;;;;;;7.88;2.90;;;6.70;99.90;;;;;;4911389;29;20048;-64
2021/10/16 03:14:34;;;;;;;8.88;3.33;;;6.80;99.90;;;;;;4942702;29;20044;-64
2021/10/16 03:17:00;;;;;;;10.20;3.38;;;6.80;99.90;;;;;;4943358;29;20044;-64
2021/10/16 03:19:26;;;;;;;7.78;2.90;;;6.90;99.90;;;;;;4930053;29;20048;-64
2021/10/16 03:21:52;;;;;;;11.98;3.42;;;6.90;99.90;;;;;;4923805;29;20036;-64
2021/10/16 03:24:17;;;;;;;10.05;3.47;;;6.90;99.90;;;;;;4911089;29;20501;-64
2021/10/16 03:26:43;;;;;;;11.60;3.10;;;6.90;99.90;;;;;;4910754;29;20513;-64
2021/10/16 03:29:09;;;;;;;8.20;3.38;;;7.00;99.90;;;;;;4910707;29;20071;-64
2021/10/16 03:31:34;;;;;;;9.95;3.28;;;7.00;99.90;;;;;;4911475;29;20079;-64
2021/10/16 03:34:01;;;;;;;6.97;3.42;;;7.00;99.90;;;;;;4910903;29;20186;-64
2021/10/16 03:36:26;;;;;;;11.27;3.65;;;7.00;99.90;;;;;;4942496;29;20083;-64
2021/10/16 03:38:54;;;;;;;9.40;3.13;;;6.90;99.90;;;;;;4942141;29;20078;-64
2021/10/16 03:41:20;;;;;;;8.27;3.38;;;7.00;99.90;;;;;;4942332;29;20501;-64
2021/10/16 03:43:46;;;;;;;14.15;3.28;;;7.00;99.90;;;;;;4926983;29;20044;-64
2021/10/16 03:46:12;;;;;;;11.18;3.55;;;6.90;99.90;;;;;;4942047;29;20058;-64
2021/10/16 03:48:37;;;;;;;10.43;3.83;;;7.10;99.90;;;;;;4927548;29;20047;-64
2021/10/16 03:51:03;;;;;;;10.90;3.63;;;7.10;99.90;;;;;;4939694;29;20056;-64
2021/10/16 03:53:29;;;;;;;9.48;3.65;;;7.00;99.90;;;;;;4910233;29;20048;-64
2021/10/16 03:55:55;;;;;;;8.00;3.40;;;7.00;99.90;;;;;;4908263;29;20100;-64
2021/10/16 03:58:20;;;;;;;14.45;3.90;;;7.10;99.90;;;;;;4909912;29;20416;-64
2021/10/16 04:00:48;;;;;;;8.25;3.40;;;7.10;99.90;;;;;;4906222;29;20044;-64
2021/10/16 04:03:14;;;;;;;12.00;3.90;;;7.00;99.90;;;;;;4889550;29;20080;-64
2021/10/16 04:05:40;;;;;;;11.27;3.65;;;7.00;99.90;;;;;;4908803;29;20410;-64
2021/10/16 04:08:08;;;;;;;7.65;3.75;;;7.00;99.90;;;;;;4904819;29;20342;-64
2021/10/16 04:10:34;;;;;;;8.38;3.70;;;7.00;99.90;;;;;;4907269;29;20139;-64
2021/10/16 04:13:02;;;;;;;8.57;3.42;;;7.00;99.90;;;;;;4904622;29;20045;-64
2021/10/16 04:15:27;;;;;;;10.10;3.90;;;7.00;99.90;;;;;;4906734;29;20045;-64
2021/10/16 04:17:53;;;;;;;11.27;4.07;;;7.00;99.90;;;;;;4906789;29;20053;-64
2021/10/16 04:20:21;;;;;;;10.32;3.75;;;7.00;99.90;;;;;;4890081;29;20409;-64
2021/10/16 04:22:47;;;;;;;6.90;3.40;;;7.00;99.90;;;;;;4909512;29;20064;-64
2021/10/16 04:25:13;;;;;;;11.73;3.70;;;7.00;99.90;;;;;;4907314;29;20104;-64
2021/10/16 04:27:39;;;;;;;12.10;3.75;;;7.00;99.90;;;;;;4908661;29;20053;-64
2021/10/16 04:30:05;;;;;;;10.60;4.03;;;7.00;99.90;;;;;;4908314;29;20055;-65
2021/10/16 04:32:34;;;;;;;11.15;3.60;;;7.00;99.90;;;;;;4905458;29;20048;-64
2021/10/16 04:35:00;;;;;;;10.93;4.00;;;7.00;99.90;;;;;;4912633;29;20083;-64
2021/10/16 04:37:26;;;;;;;11.15;3.80;;;7.10;99.90;;;;;;4910514;29;20053;-64
2021/10/16 04:39:52;;;;;;;7.63;3.17;;;7.10;99.90;;;;;;4896201;29;20091;-63
2021/10/16 04:42:18;;;;;;;9.57;4.30;;;7.00;99.90;;;;;;4912309;29;20049;-63
2021/10/16 04:44:43;;;;;;;9.95;4.18;;;7.00;99.90;;;;;;4911029;29;20112;-64
2021/10/16 04:47:09;;;;;;;10.70;3.38;;;7.00;99.90;;;;;;4909673;29;20083;-64
2021/10/16 04:49:36;;;;;;;9.60;4.38;;;7.10;99.90;;;;;;4911930;29;20116;-63
2021/10/16 04:52:04;;;;;;;10.82;3.35;;;7.00;99.90;;;;;;4921235;29;20059;-64
2021/10/16 04:54:30;;;;;;;9.45;4.22;;;7.10;99.90;;;;;;4927528;29;20055;-64
2021/10/16 04:56:56;;;;;;;11.27;3.88;;;7.10;99.90;;;;;;4911941;29;20040;-64
2021/10/16 04:59:21;;;;;;;9.70;3.88;;;7.10;99.90;;;;;;4930625;29;20036;-64
2021/10/16 05:01:47;;;;;;;6.88;3.53;;;7.10;99.90;;;;;;4943687;29;20119;-64
2021/10/16 05:04:13;;;;;;;11.85;4.20;;;7.20;99.90;;;;;;4931111;29;20056;-64
2021/10/16 05:06:38;;;;;;;9.25;4.28;;;7.20;99.90;;;;;;4926947;29;20044;-64
2021/10/16 05:09:04;;;;;;;8.02;4.13;;;7.20;99.90;;;;;;4940319;29;20056;-64
2021/10/16 05:11:30;;;;;;;8.48;4.70;;;7.30;99.90;;;;;;4932165;29;20044;-63
2021/10/16 05:13:56;;;;;;;8.65;3.83;;;7.30;99.90;;;;;;4930880;29;20104;-64
2021/10/16 05:16:21;;;;;;;11.07;4.97;;;7.30;99.90;;;;;;4931488;29;20087;-64
2021/10/16 05:18:47;;;;;;;7.82;3.67;;;7.30;99.90;;;;;;4933713;29;20044;-64
2021/10/16 05:21:13;;;;;;;8.70;4.05;;;7.30;99.90;;;;;;4920538;29;20048;-64
2021/10/16 05:23:39;;;;;;;9.82;3.88;;;7.30;99.90;;;;;;4921630;29;20060;-64
2021/10/16 05:26:05;;;;;;;8.55;4.18;;;7.40;99.90;;;;;;4930405;29;20036;-63
2021/10/16 05:28:30;;;;;;;9.48;4.28;;;7.40;99.90;;;;;;4932016;29;20071;-64
2021/10/16 05:30:56;;;;;;;6.90;4.70;;;7.40;99.90;;;;;;4914345;29;20104;-64
2021/10/16 05:33:22;;;;;;;8.88;3.92;;;7.30;99.90;;;;;;4934096;29;20516;-64
2021/10/16 05:35:48;;;;;;;12.38;4.70;;;7.30;99.90;;;;;;4932578;29;20048;-64
2021/10/16 05:38:14;;;;;;;10.20;5.10;;;7.30;99.90;;;;;;4937190;29;20083;-64
2021/10/16 05:40:41;;;;;;;10.63;4.78;;;7.30;99.90;;;;;;4919058;29;20063;-64
2021/10/16 05:43:07;;;;;;;12.02;5.07;;;7.30;99.90;;;;;;4915494;29;20048;-64
2021/10/16 05:45:33;;;;;;;10.75;5.00;;;7.30;99.90;;;;;;4920604;29;20211;-64
2021/10/16 05:47:59;;;;;;;10.23;4.75;;;7.40;99.90;;;;;;4918891;29;20067;-63
2021/10/16 05:50:25;;;;;;;15.82;5.35;;;7.40;99.90;;;;;;4916060;29;20048;-63
2021/10/16 05:52:51;;;;;;;11.20;4.65;;;7.40;99.90;;;;;;4940435;29;20452;-63
2021/10/16 05:55:16;;;;;;;9.20;4.25;;;7.40;99.90;;;;;;4952650;29;20504;-63
2021/10/16 05:57:42;;;;;;;11.32;5.90;;;7.40;99.90;;;;;;4921380;29;20085;-63
2021/10/16 06:00:08;;;;;;;14.40;5.50;;;7.50;99.90;;;;;;4953350;29;20063;-64
2021/10/16 06:02:34;;;;;;;14.10;4.90;;;7.50;99.90;;;;;;4922456;29;20051;-64
2021/10/16 06:05:00;;;;;;;9.18;4.70;;;7.50;99.90;;;;;;4954442;29;20047;-64
2021/10/16 06:07:26;;;;;;;8.55;4.30;;;7.50;99.90;;;;;;4954775;29;20555;-64
2021/10/16 06:09:51;;;;;;;8.90;4.43;;;7.50;99.90;;;;;;4960556;29;20055;-64
2021/10/16 06:12:17;;;;;;;8.27;3.97;;;7.60;99.90;;;;;;4961543;29;20044;-64
2021/10/16 06:14:43;;;;;;;7.47;4.90;;;7.60;99.90;;;;;;4925371;29;20111;-64
2021/10/16 06:17:09;;;;;;;8.20;4.70;;;7.60;99.90;;;;;;4913107;29;20122;-64
2021/10/16 06:19:34;;;;;;;10.82;4.50;;;7.60;99.90;;;;;;4930055;29;20051;-64
2021/10/16 06:22:00;;;;;;;11.45;4.95;;;7.60;99.90;;;;;;4911979;29;20104;-64
2021/10/16 06:24:26;;;;;;;9.48;3.85;;;7.60;99.90;;;;;;4911953;29;20048;-64
2021/10/16 06:26:52;;;;;;;11.00;3.70;;;7.60;99.90;;;;;;4928893;29;20103;-64
2021/10/16 06:29:18;;;;;;;9.48;4.15;;;7.70;99.90;;;;;;4912245;29;20040;-64
2021/10/16 06:31:43;;;;;;;7.70;3.92;;;7.70;99.90;;;;;;4928973;29;20059;-64
2021/10/16 06:34:10;;;;;;;10.55;4.00;;;7.70;99.90;;;;;;4929169;29;20048;-63
2021/10/16 06:36:35;;;;;;;8.80;3.97;;;7.80;99.90;;;;;;4911708;29;20400;-63
2021/10/16 06:39:01;;;;;;;8.63;3.95;;;7.90;99.90;;;;;;4943802;29;20099;-63
2021/10/16 06:41:27;;;;;;;9.60;4.03;;;7.90;99.90;;;;;;4943751;29;20084;-64
2021/10/16 06:43:52;;;;;;;11.32;3.65;;;7.90;99.90;;;;;;4942914;29;20040;-64
2021/10/16 06:46:18;;;;;;;10.85;4.25;;;7.90;99.90;;;;;;4944076;29;20060;-64
2021/10/16 06:48:44;;;;;;;8.80;4.03;;;7.90;99.90;;;;;;4921740;29;20064;-64
2021/10/16 06:51:09;;;;;;;8.38;3.30;;;7.90;99.90;;;;;;4927127;29;20143;-64
2021/10/16 06:53:36;;;;;;;10.70;3.65;;;8.00;99.90;;;;;;4940844;29;20116;-64
2021/10/16 06:56:01;;;;;;;11.20;4.72;;;8.00;99.90;;;;;;4925394;29;20081;-64
2021/10/16 06:58:27;;;;;;;12.82;3.42;;;8.10;99.90;;;;;;4926939;29;20040;-64
2021/10/16 07:00:53;;;;;;;13.70;3.50;;;8.10;99.90;;;;;;4925752;29;20052;-63
2021/10/16 07:03:18;;;;;;;11.07;3.60;;;8.10;99.90;;;;;;4941778;29;20059;-63
2021/10/16 07:05:44;;;;;;;10.90;4.03;;;8.20;99.90;;;;;;4942621;29;20066;-62
2021/10/16 07:08:10;;;;;;;8.50;3.28;;;8.30;99.90;;;;;;4926726;29;20040;-62
2021/10/16 07:10:39;;;;;;;8.30;3.00;;;8.30;99.90;;;;;;4926642;29;20052;-62
2021/10/16 07:13:06;;;;;;;10.27;3.35;;;8.40;99.90;;;;;;4907815;29;20075;-62
2021/10/16 07:15:32;;;;;;;12.25;3.30;;;8.40;99.90;;;;;;4921218;29;20032;-63
2021/10/16 07:17:58;;;;;;;13.52;3.10;;;8.40;99.90;;;;;;4942448;29;20505;-63
2021/10/16 07:20:24;;;;;;;11.02;3.65;;;8.40;99.90;;;;;;4928280;29;20046;-63
2021/10/16 07:22:50;;;;;;;10.27;3.67;;;8.40;99.90;;;;;;4910463;29;20454;-62
2021/10/16 07:25:16;;;;;;;11.40;3.13;;;8.40;99.90;;;;;;4942111;29;20056;-62
2021/10/16 07:27:42;;;;;;;8.75;3.65;;;8.40;99.90;;;;;;4911382;29;20040;-62
2021/10/16 07:30:08;;;;;;;12.45;3.35;;;8.50;99.90;;;;;;4928312;29;20055;-62
2021/10/16 07:32:35;;;;;;;9.77;2.90;;;8.50;99.90;;;;;;4926569;29;20043;-63
2021/10/16 07:35:00;;;;;;;7.10;2.97;;;8.50;99.90;;;;;;4927582;29;20051;-62
2021/10/16 07:37:26;;;;;;;11.02;3.75;;;8.60;99.90;;;;;;4942425;29;20116;-63
2021/10/16 07:39:52;;;;;;;8.80;2.90;;;8.60;99.90;;;;;;4928804;29;20075;-63
2021/10/16 07:42:18;;;;;;;8.63;3.13;;;8.70;99.90;;;;;;4926996;29;20044;-63
2021/10/16 07:44:43;;;;;;;8.15;3.50;;;8.70;99.90;;;;;;4926950;29;20080;-63
2021/10/16 07:47:09;;;;;;;8.82;2.83;;;8.70;99.90;;;;;;4928601;29;20044;-62
2021/10/16 07:49:35;;;;;;;7.32;2.45;;;8.80;99.90;;;;;;4927180;29;20048;-63
2021/10/16 07:52:01;;;;;;;9.27;3.10;;;8.80;99.90;;;;;;4926839;29;20111;-63
2021/10/16 07:54:26;;;;;;;9.85;2.70;;;8.80;99.90;;;;;;4910068;29;20055;-63
2021/10/16 07:56:52;;;;;;;7.50;3.13;;;8.80;99.90;;;;;;4927484;29;20149;-62
2021/10/16 07:59:18;;;;;;;8.23;3.08;;;8.90;99.90;;;;;;4926935;29;20088;-62
2021/10/16 08:01:44;;;;;;;10.85;3.10;;;8.90;99.90;;;;;;4925265;29;20044;-62
2021/10/16 08:04:09;;;;;;;5.95;3.08;;;8.90;99.90;;;;;;4909836;29;20115;-62
2021/10/16 08:06:35;;;;;;;11.13;3.25;;;9.00;99.90;;;;;;4926774;29;20048;-66
2021/10/16 08:09:02;;;;;;;9.85;3.08;;;9.00;99.90;;;;;;4942505;29;20056;-63
2021/10/16 08:11:28;;;;;;;7.78;3.30;;;9.00;99.90;;;;;;4930551;29;20048;-63
2021/10/16 08:13:53;;;;;;;7.68;2.35;;;9.00;99.90;;;;;;4930263;29;20051;-63
2021/10/16 08:16:19;;;;;;;7.72;2.65;;;9.00;99.90;;;;;;4931146;29;20044;-63
2021/10/16 08:18:45;;;;;;;9.18;3.08;;;9.10;99.90;;;;;;4930186;29;20079;-63
2021/10/16 08:21:11;;;;;;;8.02;2.70;;;9.10;99.90;;;;;;4930661;29;20127;-63
2021/10/16 08:23:36;;;;;;;11.95;3.28;;;9.10;99.90;;;;;;4930533;29;20040;-65
2021/10/16 08:26:02;;;;;;;10.02;3.10;;;9.20;99.90;;;;;;4913525;29;20137;-63
2021/10/16 08:28:29;;;;;;;7.72;2.70;;;9.20;99.90;;;;;;4930483;29;20044;-62
2021/10/16 08:30:56;;;;;;;9.35;2.55;;;9.30;99.90;;;;;;4930313;29;20048;-63
2021/10/16 08:33:22;;;;;;;11.05;2.63;;;9.30;99.90;;;;;;4931636;29;20119;-62
2021/10/16 08:35:49;;;;;;;6.20;2.60;;;9.30;99.90;;;;;;4913215;29;20107;-62
2021/10/16 08:38:15;;;;;;;12.77;3.05;;;9.40;99.90;;;;;;4929924;29;20048;-63
2021/10/16 08:40:42;;;;;;;9.23;3.13;;;9.40;99.90;;;;;;4914968;29;20048;-63
2021/10/16 08:43:09;;;;;;;9.32;3.08;;;9.40;99.90;;;;;;4912808;29;20052;-63
2021/10/16 08:45:35;;;;;;;8.13;2.85;;;9.40;99.90;;;;;;4912591;29;20044;-62
2021/10/16 08:48:04;;;;;;;10.45;2.75;;;9.40;99.90;;;;;;4944257;29;20123;-63
2021/10/16 08:50:31;;;;;;;13.73;2.80;;;9.50;99.90;;;;;;4912317;29;20126;-63
2021/10/16 08:52:57;;;;;;;9.65;3.38;;;9.50;99.90;;;;;;4929411;29;20099;-63
2021/10/16 08:55:23;;;;;;;11.02;3.28;;;9.60;99.90;;;;;;4926961;29;20040;-62
2021/10/16 08:57:50;;;;;;;13.18;3.35;;;9.60;99.90;;;;;;4930233;29;20060;-63
2021/10/16 09:00:38;;;;;;;8.88;2.90;;;9.60;99.90;;;;;;4944163;29;20191;-63
2021/10/16 09:03:24;;;;;;;9.05;2.58;;;9.70;99.90;;;;;;4910525;29;20056;-62
2021/10/16 09:06:20;;;;;;;8.82;2.88;;;9.70;99.90;;;;;;4912712;29;20051;-62
2021/10/16 09:09:03;;;;;;;10.43;2.75;;;9.70;99.90;;;;;;4915880;29;20060;-62
2021/10/16 09:11:40;;;;;;;9.02;3.03;;;9.80;99.90;;;;;;4912751;29;20107;-62
2021/10/16 09:14:16;;;;;;;10.27;4.10;;;9.90;99.90;;;;;;4912621;29;20135;-62
2021/10/16 09:16:44;;;;;;;9.10;3.00;;;9.90;99.90;;;;;;4912512;29;20056;-63
2021/10/16 09:19:21;;;;;;;6.82;2.50;;;10.00;99.90;;;;;;4933245;29;20046;-62
2021/10/16 09:21:54;;;;;;;7.00;2.80;;;10.10;99.90;;;;;;4910131;29;20090;-62
2021/10/16 09:24:28;;;;;;;7.63;2.85;;;10.10;99.90;;;;;;4913401;29;20090;-63
2021/10/16 09:26:57;;;;;;;12.82;3.47;;;10.10;99.90;;;;;;4913174;29;20056;-62
2021/10/16 09:29:28;;;;;;;10.52;2.53;;;10.20;99.90;;;;;;4929352;29;20064;-62
2021/10/16 09:31:58;;;;;;;7.70;2.40;;;10.20;99.90;;;;;;4943243;29;20052;-62
2021/10/16 09:34:48;;;;;;;8.02;3.20;;;10.20;99.90;;;;;;4929617;29;20055;-62
2021/10/16 09:37:19;;;;;;;8.52;2.45;;;10.20;99.90;;;;;;4943965;29;20056;-62
2021/10/16 09:39:48;;;;;;;15.57;4.40;;;10.30;99.90;;;;;;4930008;29;20048;-62
2021/10/16 09:42:40;;;;;;;9.02;3.22;;;10.30;99.90;;;;;;4912145;29;20139;-63
2021/10/16 09:45:08;;;;;;;11.00;3.47;;;10.30;99.90;;;;;;4927815;29;20059;-62
2021/10/16 09:47:35;;;;;;;8.98;3.72;;;10.40;99.90;;;;;;4943486;29;20056;-63
2021/10/16 09:50:09;;;;;;;9.55;3.00;;;10.40;99.90;;;;;;4863488;29;20074;-63
2021/10/16 09:52:40;;;;;;;7.90;2.72;;;10.50;99.90;;;;;;4906989;29;20043;-64
2021/10/16 09:55:08;;;;;;;8.63;3.70;;;10.50;99.90;;;;;;4918463;29;20052;-66
2021/10/16 09:57:34;;;;;;;9.70;2.90;;;10.50;99.90;;;;;;4913804;29;20044;-63
2021/10/16 10:00:01;;;;;;;10.10;3.28;;;10.60;99.90;;;;;;4905938;29;20382;-64
2021/10/16 10:02:31;;;;;;;9.05;2.97;;;10.60;99.90;;;;;;4904918;29;20059;-64
2021/10/16 10:04:58;;;;;;;6.78;2.75;;;10.70;99.90;;;;;;4907655;29;20079;-63
2021/10/16 10:07:25;;;;;;;10.32;3.30;;;10.70;99.90;;;;;;4900293;29;20052;-64
2021/10/16 10:09:52;;;;;;;9.65;3.05;;;10.70;99.90;;;;;;4917692;29;20060;-63
2021/10/16 10:12:18;;;;;;;8.52;3.05;;;10.80;99.90;;;;;;4897669;29;20052;-63
2021/10/16 10:14:48;;;;;;;9.68;3.17;;;10.70;99.90;;;;;;4912831;29;20056;-62
2021/10/16 10:17:29;;;;;;;11.82;2.80;;;10.80;99.90;;;;;;4910627;29;20366;-64
2021/10/16 10:20:14;;;;;;;9.25;3.33;;;10.80;99.90;;;;;;4914986;29;20043;-64
2021/10/16 10:22:41;;;;;;;7.25;2.83;;;10.80;99.90;;;;;;4914403;29;20109;-64
2021/10/16 10:25:21;;;;;;;10.90;3.85;;;10.90;99.90;;;;;;4914103;29;20112;-63
2021/10/16 10:27:47;;;;;;;8.90;2.72;;;11.00;99.90;;;;;;4915933;29;20488;-64
2021/10/16 10:30:35;;;;;;;11.15;3.00;;;11.00;99.90;;;;;;4915338;29;20053;-64
2021/10/16 10:33:24;;;;;;;9.13;3.10;;;11.10;99.90;;;;;;4927431;29;20052;-64
2021/10/16 10:35:58;;;;;;;11.30;2.90;;;11.10;99.90;;;;;;4910950;29;20056;-64
2021/10/16 10:38:41;;;;;;;11.63;2.97;;;11.20;99.90;;;;;;4927177;29;20055;-67
2021/10/16 10:41:25;;;;;;;7.97;2.65;;;11.20;99.90;;;;;;4922487;29;20076;-63
2021/10/16 10:43:55;;;;;;;16.50;4.00;;;11.30;99.90;;;;;;4925787;29;20084;-63
2021/10/16 10:46:25;;;;;;;13.50;3.67;;;11.30;99.90;;;;;;4935026;29;20032;-64
2021/10/16 10:48:51;;;;;;;9.70;2.75;;;11.30;99.90;;;;;;4911250;29;20484;-64
2021/10/16 10:51:35;;;;;;;8.35;2.65;;;11.40;99.90;;;;;;4905797;29;20115;-64
2021/10/16 10:54:18;;;;;;;7.63;2.92;;;11.40;99.90;;;;;;4905501;29;20460;-65
2021/10/16 10:56:47;;;;;;;8.80;3.03;;;11.40;99.90;;;;;;4903647;29;20078;-64
2021/10/16 10:59:16;;;;;;;8.32;2.78;;;11.40;99.90;;;;;;4921629;29;20665;-64
2021/10/16 11:01:52;;;;;;;8.02;2.85;;;11.50;99.90;;;;;;4935382;29;20330;-65
2021/10/16 11:04:38;;;;;;;13.27;3.72;;;11.50;99.90;;;;;;4926808;29;20065;-66
2021/10/16 11:07:11;;;;;;;10.27;3.30;;;11.50;99.90;;;;;;4905679;29;20040;-65
2021/10/16 11:09:38;;;;;;;10.35;3.08;;;11.60;99.90;;;;;;4910311;29;20119;-65
2021/10/16 11:12:05;;;;;;;10.45;3.53;;;11.60;99.90;;;;;;4901962;29;20040;-66
2021/10/16 11:14:32;;;;;;;16.52;3.60;;;11.50;99.90;;;;;;4925366;29;20084;-65
2021/10/16 11:17:00;;;;;;;11.48;3.58;;;11.60;99.90;;;;;;4899463;29;20190;-64
2021/10/16 11:19:27;;;;;;;10.13;3.55;;;11.70;99.90;;;;;;4904379;29;20074;-65
2021/10/16 11:21:58;;;;;;;11.13;2.97;;;11.70;99.90;;;;;;4901422;29;20536;-65
2021/10/16 11:24:26;;;;;;;9.27;3.30;;;11.80;99.90;;;;;;4908386;29;20074;-65
2021/10/16 11:26:59;;;;;;;9.60;3.88;;;11.80;99.90;;;;;;4898813;29;20052;-65
2021/10/16 11:29:39;;;;;;;10.88;3.42;;;11.80;99.90;;;;;;4914759;29;20056;-65
2021/10/16 11:32:18;;;;;;;10.10;3.03;;;11.90;99.90;;;;;;4896634;29;20044;-66
2021/10/16 11:35:07;;;;;;;8.27;3.10;;;11.90;99.90;;;;;;4924828;29;20068;-65
2021/10/16 11:37:43;;;;;;;9.93;2.75;;;11.90;99.90;;;;;;4910390;29;20051;-63
2021/10/16 11:40:21;;;;;;;8.50;2.83;;;11.90;99.90;;;;;;4942023;29;20048;-63
2021/10/16 11:42:53;;;;;;;12.00;3.03;;;12.00;99.90;;;;;;4909987;29;20090;-63
2021/10/16 11:45:40;;;;;;;12.77;2.88;;;12.00;99.90;;;;;;4909538;29;20079;-63
2021/10/16 11:48:08;;;;;;;9.02;3.25;;;12.00;99.90;;;;;;4940930;29;20087;-63
2021/10/16 11:50:37;;;;;;;9.88;3.03;;;11.90;99.90;;;;;;4926076;29;20084;-63
2021/10/16 11:53:18;;;;;;;9.48;3.13;;;11.90;99.90;;;;;;4924886;29;20087;-62
2021/10/16 11:55:47;;;;;;;7.95;2.97;;;12.00;99.90;;;;;;4926992;29;20056;-65
2021/10/16 11:58:20;;;;;;;8.57;2.90;;;11.90;99.90;;;;;;4910193;29;20059;-66
2021/10/16 12:00:51;;;;;;;9.00;3.15;;;12.00;99.90;;;;;;4910374;29;20056;-67
2021/10/16 12:03:24;;;;;;;5.97;2.53;;;12.00;99.90;;;;;;4926357;29;20079;-67
2021/10/16 12:05:55;;;;;;;7.80;3.53;;;12.00;99.90;;;;;;4909714;29;20052;-67
2021/10/16 12:08:23;;;;;;;10.98;2.78;;;12.00;99.90;;;;;;4941606;29;20053;-67
2021/10/16 12:10:54;;;;;;;7.20;2.70;;;12.00;99.90;;;;;;4941970;29;20052;-67
2021/10/16 12:13:30;;;;;;;7.32;2.80;;;12.00;99.90;;;;;;4925980;29;20052;-67
2021/10/16 12:15:56;;;;;;;10.38;2.90;;;12.10;99.90;;;;;;4927107;29;20515;-66
2021/10/16 12:18:24;;;;;;;6.13;2.65;;;12.10;99.90;;;;;;4941560;29;20076;-67
2021/10/16 12:20:56;;;;;;;10.45;3.00;;;12.10;99.90;;;;;;4926813;29;20044;-67
2021/10/16 12:23:24;;;;;;;9.40;3.05;;;12.10;99.90;;;;;;4909721;29;20059;-67
2021/10/16 12:25:56;;;;;;;13.63;3.55;;;12.10;99.90;;;;;;4910347;29;20059;-67
2021/10/16 12:28:23;;;;;;;8.30;2.67;;;12.10;99.90;;;;;;4941911;29;20115;-66
2021/10/16 12:31:20;;;;;;;10.30;3.22;;;12.10;99.90;;;;;;4926453;29;20104;-67
2021/10/16 12:34:04;;;;;;;12.48;3.70;;;12.20;99.90;;;;;;4914729;29;20079;-66
2021/10/16 12:36:41;;;;;;;6.30;2.95;;;12.20;99.90;;;;;;4912723;29;20048;-67
2021/10/16 12:39:09;;;;;;;9.82;3.00;;;12.30;99.90;;;;;;4926557;29;20050;-67
2021/10/16 12:41:40;;;;;;;10.35;3.05;;;12.20;99.90;;;;;;4910475;29;20040;-67
2021/10/16 12:44:17;;;;;;;8.10;3.30;;;12.30;99.90;;;;;;4909968;29;20083;-67
2021/10/16 12:46:44;;;;;;;11.15;3.03;;;12.30;99.90;;;;;;4913698;29;20129;-67
2021/10/16 12:49:48;;;;;;;10.27;3.08;;;12.30;99.90;;;;;;4929563;29;20051;-67
2021/10/16 12:52:36;;;;;;;9.38;3.08;;;12.30;99.90;;;;;;4901857;29;20103;-67
2021/10/16 12:55:11;;;;;;;8.35;3.90;;;12.40;99.90;;;;;;4939831;29;20052;-67
2021/10/16 12:57:54;;;;;;;9.52;3.95;;;12.30;99.90;;;;;;4945043;29;20040;-67